createdAt,value
2019-04-27T00:01:56.016Z,80.10
2019-04-27T00:04:40.455Z,79.90
2019-04-27T00:07:28.680Z,80.60
2019-04-27T00:10:05.138Z,81.40
2019-04-27T00:12:38.268Z,80.70
2019-04-27T00:15:18.090Z,79.80
2019-04-27T00:17:50.063Z,79.70
2019-04-27T00:20:23.973Z,80.10
2019-04-27T00:22:58.791Z,81.00
2019-04-27T00:25:29.049Z,81.10
2019-04-27T00:27:59.168Z,81.00
2019-04-27T00:30:29.397Z,81.00
2019-04-27T00:32:59.824Z,81.30
2019-04-27T00:35:33.530Z,82.30
2019-04-27T00:38:13.149Z,82.60
2019-04-27T00:40:46.463Z,82.90
2019-04-27T00:43:16.550Z,82.20
2019-04-27T00:45:46.687Z,83.10
2019-04-27T00:48:24.406Z,83.50
2019-04-27T00:50:57.593Z,83.90
2019-04-27T00:53:33.409Z,84.00
2019-04-27T00:56:07.642Z,83.60
2019-04-27T00:58:45.506Z,83.10
2019-04-27T01:01:23.428Z,82.80
2019-04-27T01:04:20.230Z,83.00
2019-04-27T01:06:50.311Z,82.80
2019-04-27T01:09:21.234Z,82.50
2019-04-27T01:14:40.490Z,83.00
2019-04-27T01:17:13.023Z,82.90
2019-04-27T01:19:43.147Z,82.30
2019-04-27T01:22:13.607Z,82.70
2019-04-27T01:24:43.586Z,82.10
2019-04-27T01:27:24.366Z,82.40
2019-04-27T01:29:55.991Z,82.70
2019-04-27T01:32:29.282Z,82.70
2019-04-27T01:34:59.617Z,82.90
2019-04-27T01:37:29.767Z,82.80
2019-04-27T01:39:59.913Z,82.90
2019-04-27T01:42:33.919Z,82.40
2019-04-27T01:45:05.926Z,81.80
2019-04-27T01:47:36.195Z,82.60
2019-04-27T01:50:08.754Z,82.60
2019-04-27T01:52:39.001Z,82.90
2019-04-27T01:55:09.223Z,81.20
2019-04-27T01:57:39.518Z,81.90
2019-04-27T02:00:31.887Z,81.10
2019-04-27T02:03:08.508Z,81.80
2019-04-27T02:05:40.386Z,82.30
2019-04-27T02:08:10.748Z,81.60
2019-04-27T02:10:40.939Z,82.00
2019-04-27T02:13:11.299Z,81.30
2019-04-27T02:15:41.489Z,82.10
2019-04-27T02:18:11.717Z,82.20
2019-04-27T02:20:44.336Z,83.00
2019-04-27T02:23:13.674Z,83.00
2019-04-27T02:25:44.046Z,81.90
2019-04-27T02:28:25.150Z,81.10
2019-04-27T02:31:13.370Z,81.50
2019-04-27T02:33:49.853Z,82.50
2019-04-27T02:36:32.215Z,83.60
2019-04-27T02:39:04.391Z,82.60
2019-04-27T02:41:35.115Z,82.50
2019-04-27T02:44:10.255Z,81.50
2019-04-27T02:46:43.550Z,81.90
2019-04-27T02:49:13.705Z,82.40
2019-04-27T02:51:45.492Z,83.30
2019-04-27T02:54:15.684Z,83.20
2019-04-27T02:56:46.541Z,83.20
2019-04-27T02:59:16.740Z,83.30
2019-04-27T03:01:50.385Z,83.20
2019-04-27T03:04:20.366Z,83.30
2019-04-27T03:06:50.649Z,83.00
2019-04-27T03:09:20.933Z,83.60
2019-04-27T03:11:51.104Z,83.30
2019-04-27T03:14:40.335Z,83.50
2019-04-27T03:17:12.704Z,83.60
2019-04-27T03:19:45.963Z,84.80
2019-04-27T03:22:29.335Z,85.20
2019-04-27T03:25:14.770Z,86.00
2019-04-27T03:27:55.640Z,86.10
2019-04-27T03:30:25.673Z,86.40
2019-04-27T03:33:02.456Z,86.50
2019-04-27T03:35:35.359Z,85.00
2019-04-27T03:38:19.665Z,84.40
2019-04-27T03:40:50.707Z,83.90
2019-04-27T03:43:25.683Z,84.70
2019-04-27T03:45:55.854Z,83.90
2019-04-27T03:48:26.080Z,84.20
2019-04-27T03:50:59.495Z,84.20
2019-04-27T03:53:31.561Z,83.60
2019-04-27T03:56:10.172Z,82.80
2019-04-27T03:58:42.452Z,83.80
2019-04-27T04:01:12.789Z,84.00
2019-04-27T04:03:42.782Z,83.90
2019-04-27T04:06:14.700Z,84.30
2019-04-27T04:08:44.845Z,84.70
2019-04-27T04:11:33.358Z,85.20
2019-04-27T04:14:05.201Z,85.10
2019-04-27T04:16:53.638Z,84.80
2019-04-27T04:19:23.839Z,84.60
2019-04-27T04:21:54.092Z,84.70
2019-04-27T04:24:28.164Z,83.70
2019-04-27T04:29:53.188Z,83.70
2019-04-27T04:32:23.337Z,84.20
2019-04-27T04:34:54.727Z,83.70
2019-04-27T04:37:24.883Z,83.70
2019-04-27T04:39:56.393Z,83.70
2019-04-27T04:42:30.891Z,82.40
2019-04-27T04:45:05.272Z,83.30
2019-04-27T04:47:43.050Z,83.30
2019-04-27T04:50:15.154Z,83.90
2019-04-27T04:52:45.043Z,84.80
2019-04-27T04:55:15.159Z,84.20
2019-04-27T04:57:45.377Z,84.10
2019-04-27T05:00:15.516Z,83.70
2019-04-27T05:02:49.187Z,83.70
2019-04-27T05:05:19.466Z,84.50
2019-04-27T05:07:49.457Z,84.70
2019-04-27T05:10:19.480Z,84.00
2019-04-27T05:12:50.463Z,83.60
2019-04-27T05:15:20.846Z,84.20
2019-04-27T05:17:52.735Z,84.00
2019-04-27T05:20:33.845Z,83.10
2019-04-27T05:23:03.973Z,83.60
2019-04-27T05:25:34.170Z,83.40
2019-04-27T05:28:05.418Z,83.90
2019-04-27T05:30:35.483Z,83.60
2019-04-27T05:33:05.470Z,82.50
2019-04-27T05:35:35.914Z,82.80
2019-04-27T05:38:07.222Z,82.50
2019-04-27T05:40:39.828Z,81.40
2019-04-27T05:43:11.378Z,81.50
2019-04-27T05:46:09.860Z,81.70
2019-04-27T05:48:39.013Z,81.60
2019-04-27T05:51:09.302Z,82.50
2019-04-27T05:53:39.638Z,82.90
2019-04-27T05:56:09.714Z,84.10
2019-04-27T05:58:40.335Z,82.20
2019-04-27T06:01:11.346Z,82.90
2019-04-27T06:03:41.718Z,82.50
2019-04-27T06:06:11.844Z,82.20
2019-04-27T06:08:42.204Z,80.70
2019-04-27T06:11:12.400Z,81.50
2019-04-27T06:13:42.727Z,82.30
2019-04-27T06:16:12.918Z,82.50
2019-04-27T06:18:44.136Z,82.10
2019-04-27T06:21:14.320Z,80.70
2019-04-27T06:23:44.547Z,80.90
2019-04-27T06:26:14.673Z,80.90
2019-04-27T06:28:44.814Z,80.30
2019-04-27T06:31:14.816Z,79.60
2019-04-27T06:33:45.041Z,79.20
2019-04-27T06:36:15.682Z,79.10
2019-04-27T06:39:03.202Z,77.90
2019-04-27T06:41:36.955Z,78.10
2019-04-27T06:44:07.088Z,78.40
2019-04-27T06:46:38.536Z,80.60
2019-04-27T06:49:10.825Z,79.70
2019-04-27T06:51:40.875Z,79.60
2019-04-27T06:54:11.330Z,79.50
2019-04-27T06:56:41.331Z,79.40
2019-04-27T06:59:11.411Z,80.00
2019-04-27T07:01:41.596Z,80.30
2019-04-27T07:04:11.643Z,79.00
2019-04-27T07:06:53.306Z,79.30
2019-04-27T07:09:13.586Z,77.90
2019-04-27T07:11:43.711Z,78.60
2019-04-27T07:14:13.851Z,77.80
2019-04-27T07:16:44.174Z,77.40
2019-04-27T07:19:14.282Z,77.20
2019-04-27T07:21:44.283Z,76.50
2019-04-27T07:24:14.706Z,78.40
2019-04-27T07:26:44.870Z,76.10
2019-04-27T07:29:16.512Z,75.00
2019-04-27T07:31:49.568Z,75.30
2019-04-27T07:34:20.684Z,75.60
2019-04-27T07:36:50.789Z,75.40
2019-04-27T07:39:20.914Z,75.60
2019-04-27T07:41:51.142Z,75.40
2019-04-27T07:44:22.826Z,74.50
2019-04-27T07:47:11.242Z,72.70
2019-04-27T07:49:41.330Z,72.60
2019-04-27T07:52:11.585Z,71.80
2019-04-27T07:54:41.886Z,73.20
2019-04-27T07:57:12.003Z,71.00
2019-04-27T07:59:42.330Z,70.40
2019-04-27T08:02:12.560Z,70.50
2019-04-27T08:04:42.711Z,71.90
2019-04-27T08:07:13.007Z,67.20
2019-04-27T08:09:43.121Z,66.60
2019-04-27T08:12:13.182Z,64.40
2019-04-27T08:14:43.303Z,65.80
2019-04-27T08:17:13.703Z,65.70
2019-04-27T08:19:46.117Z,66.00
2019-04-27T08:22:16.270Z,65.00
2019-04-27T08:27:34.868Z,66.20
2019-04-27T08:30:26.088Z,64.80
2019-04-27T08:32:59.317Z,63.50
2019-04-27T08:35:31.099Z,61.20
2019-04-27T08:38:00.450Z,62.20
2019-04-27T08:40:30.555Z,63.00
2019-04-27T08:43:00.884Z,62.30
2019-04-27T08:45:31.003Z,60.80
2019-04-27T08:48:01.255Z,60.90
2019-04-27T08:50:31.554Z,59.50
2019-04-27T08:53:01.783Z,59.90
2019-04-27T08:55:31.903Z,58.70
2019-04-27T08:58:04.076Z,57.60
2019-04-27T09:00:34.332Z,58.30
2019-04-27T09:03:04.411Z,59.40
2019-04-27T09:05:34.684Z,59.10
2019-04-27T09:08:18.945Z,58.50
2019-04-27T09:11:08.945Z,56.80
2019-04-27T09:13:42.094Z,57.00
2019-04-27T09:16:13.922Z,57.60
2019-04-27T09:18:43.980Z,56.10
2019-04-27T09:21:14.115Z,55.70
2019-04-27T09:23:44.235Z,56.60
2019-04-27T09:26:14.290Z,56.70
2019-04-27T09:28:44.347Z,55.50
2019-04-27T09:31:14.490Z,53.80
2019-04-27T09:33:44.691Z,53.00
2019-04-27T09:36:16.495Z,52.90
2019-04-27T09:38:46.907Z,50.50
2019-04-27T09:41:17.337Z,49.80
2019-04-27T09:43:49.798Z,49.10
2019-04-27T09:46:27.490Z,49.20
2019-04-27T09:48:57.812Z,48.40
2019-04-27T09:51:27.963Z,50.60
2019-04-27T09:53:57.970Z,49.30
2019-04-27T09:56:29.336Z,51.40
2019-04-27T09:58:59.382Z,49.80
2019-04-27T10:01:29.531Z,49.70
2019-04-27T10:04:00.110Z,50.70
2019-04-27T10:06:31.563Z,50.80
2019-04-27T10:09:01.772Z,51.00
2019-04-27T10:11:33.507Z,50.80
2019-04-27T10:14:05.808Z,49.70
2019-04-27T10:16:36.651Z,50.70
2019-04-27T10:19:06.964Z,50.60
2019-04-27T10:21:37.119Z,50.40
2019-04-27T10:24:07.277Z,50.50
2019-04-27T10:26:37.666Z,50.30
2019-04-27T10:29:08.886Z,49.30
2019-04-27T10:31:38.883Z,49.10
2019-04-27T10:34:09.132Z,47.90
2019-04-27T10:36:47.674Z,46.80
2019-04-27T10:39:17.668Z,46.20
2019-04-27T10:41:48.815Z,44.70
2019-04-27T10:44:19.067Z,45.40
2019-04-27T10:46:49.181Z,42.60
2019-04-27T10:49:19.316Z,43.80
2019-04-27T10:51:49.641Z,41.70
2019-04-27T10:54:23.401Z,39.50
2019-04-27T10:56:53.469Z,34.90
2019-04-27T10:59:23.797Z,36.40
2019-04-27T11:01:53.976Z,36.20
2019-04-27T11:04:28.821Z,33.60
2019-04-27T11:09:55.059Z,34.00
2019-04-27T11:12:28.486Z,30.90
2019-04-27T11:14:57.745Z,29.60
2019-04-27T11:17:27.797Z,28.10
2019-04-27T11:19:57.918Z,29.70
2019-04-27T11:22:28.059Z,30.30
2019-04-27T11:24:58.146Z,30.30
2019-04-27T11:27:28.339Z,29.50
2019-04-27T11:29:58.734Z,26.00
2019-04-27T11:32:30.502Z,27.70
2019-04-27T11:35:20.235Z,26.80
2019-04-27T11:37:52.360Z,29.40
2019-04-27T11:40:23.207Z,26.70
2019-04-27T11:42:53.468Z,28.30
2019-04-27T11:45:23.725Z,32.30
2019-04-27T11:47:55.308Z,30.10
2019-04-27T11:50:25.717Z,31.40
2019-04-27T11:52:56.657Z,30.30
2019-04-27T11:55:27.467Z,28.50
2019-04-27T11:57:57.539Z,31.30
2019-04-27T12:00:28.231Z,29.50
2019-04-27T12:02:58.440Z,27.80
2019-04-27T12:05:28.703Z,27.60
2019-04-27T12:07:58.926Z,28.50
2019-04-27T12:10:29.153Z,27.10
2019-04-27T12:12:59.222Z,28.10
2019-04-27T12:15:29.910Z,28.00
2019-04-27T12:18:00.018Z,30.00
2019-04-27T12:20:30.139Z,29.50
2019-04-27T12:23:00.295Z,28.40
2019-04-27T12:25:30.478Z,28.60
2019-04-27T12:28:14.443Z,30.40
2019-04-27T12:30:46.797Z,29.60
2019-04-27T12:33:17.342Z,30.00
2019-04-27T12:35:48.328Z,30.30
2019-04-27T12:38:19.130Z,28.70
2019-04-27T12:40:49.203Z,27.70
2019-04-27T12:43:19.478Z,29.20
2019-04-27T12:45:49.730Z,28.60
2019-04-27T12:48:21.330Z,27.40
2019-04-27T12:50:51.588Z,25.50
2019-04-27T12:53:23.966Z,26.60
2019-04-27T12:55:56.585Z,27.10
2019-04-27T12:58:34.339Z,28.00
2019-04-27T13:01:13.331Z,27.40
2019-04-27T13:03:43.793Z,27.90
2019-04-27T13:06:14.103Z,27.60
2019-04-27T13:08:45.729Z,27.30
2019-04-27T13:11:16.330Z,28.10
2019-04-27T13:14:06.291Z,27.40
2019-04-27T13:16:38.024Z,28.90
2019-04-27T13:19:11.344Z,30.50
2019-04-27T13:21:41.535Z,30.10
2019-04-27T13:24:13.708Z,28.70
2019-04-27T13:26:45.613Z,28.00
2019-04-27T13:29:18.286Z,29.00
2019-04-27T13:31:48.367Z,31.90
2019-04-27T13:34:18.635Z,30.40
2019-04-27T13:36:48.795Z,30.30
2019-04-27T13:39:18.986Z,30.00
2019-04-27T13:41:49.478Z,31.00
2019-04-27T13:44:19.603Z,31.70
2019-04-27T13:47:11.042Z,32.00
2019-04-27T13:49:46.111Z,31.90
2019-04-27T13:52:18.147Z,29.60
2019-04-27T13:54:48.369Z,30.00
2019-04-27T13:57:18.555Z,29.40
2019-04-27T14:00:25.650Z,29.10
2019-04-27T14:02:55.992Z,30.80
2019-04-27T14:05:26.523Z,30.90
2019-04-27T14:07:59.065Z,29.20
2019-04-27T14:10:28.782Z,28.80
2019-04-27T14:12:59.210Z,30.10
2019-04-27T14:15:29.510Z,30.40
2019-04-27T14:17:59.697Z,29.90
2019-04-27T14:20:29.875Z,28.80
2019-04-27T14:23:10.480Z,28.80
2019-04-27T14:25:40.582Z,29.40
2019-04-27T14:28:10.831Z,28.40
2019-04-27T14:30:41.258Z,28.60
2019-04-27T14:33:11.395Z,27.20
2019-04-27T14:35:45.167Z,27.70
2019-04-27T14:38:15.275Z,28.70
2019-04-27T14:40:45.644Z,29.00
2019-04-27T14:43:16.007Z,30.00
2019-04-27T14:45:48.625Z,29.20
2019-04-27T14:48:18.831Z,30.10
2019-04-27T14:50:49.107Z,29.60
2019-04-27T14:53:19.402Z,29.30
2019-04-27T14:55:49.552Z,29.10
2019-04-27T14:58:20.087Z,29.60
2019-04-27T15:00:50.412Z,30.00
2019-04-27T15:03:21.474Z,29.50
2019-04-27T15:05:53.845Z,31.60
2019-04-27T15:08:25.579Z,30.00
2019-04-27T15:10:57.730Z,30.50
2019-04-27T15:13:27.852Z,30.00
2019-04-27T15:15:58.055Z,31.50
2019-04-27T15:18:29.976Z,31.30
2019-04-27T15:21:02.646Z,31.50
2019-04-27T15:23:33.463Z,31.90
2019-04-27T15:26:03.719Z,33.00
2019-04-27T15:28:35.445Z,33.30
2019-04-27T15:31:07.311Z,34.40
2019-04-27T15:33:55.139Z,33.10
2019-04-27T15:36:38.986Z,34.30
2019-04-27T15:39:41.801Z,35.10
2019-04-27T15:42:19.244Z,35.00
2019-04-27T15:44:50.017Z,35.00
2019-04-27T15:47:20.337Z,34.50
2019-04-27T15:49:54.537Z,34.20
2019-04-27T15:52:25.635Z,35.90
2019-04-27T15:54:54.205Z,36.80
2019-04-27T15:57:27.886Z,36.60
2019-04-27T15:59:56.335Z,37.50
2019-04-27T16:02:26.559Z,34.30
2019-04-27T16:04:58.247Z,34.10
2019-04-27T16:07:40.840Z,33.90
2019-04-27T16:10:11.778Z,32.40
2019-04-27T16:12:54.731Z,32.70
2019-04-27T16:15:17.504Z,32.20
2019-04-27T16:17:52.969Z,33.00
2019-04-27T16:20:22.519Z,33.90
2019-04-27T16:22:50.293Z,33.70
2019-04-27T16:25:23.668Z,34.90
2019-04-27T16:27:52.210Z,33.20
2019-04-27T16:30:22.435Z,33.90
2019-04-27T16:32:52.546Z,33.80
2019-04-27T16:35:23.170Z,34.00
2019-04-27T16:38:00.126Z,34.10
2019-04-27T16:40:30.358Z,33.30
2019-04-27T16:43:00.658Z,32.70
2019-04-27T16:45:30.891Z,31.90
2019-04-27T16:48:04.625Z,33.30
2019-04-27T16:50:34.758Z,35.60
2019-04-27T16:53:05.027Z,37.10
2019-04-27T16:55:35.371Z,38.30
2019-04-27T16:58:09.824Z,38.40
2019-04-27T17:00:38.754Z,40.00
2019-04-27T17:03:10.879Z,39.50
2019-04-27T17:05:41.161Z,40.60
2019-04-27T17:08:21.465Z,41.30
2019-04-27T17:10:43.253Z,42.00
2019-04-27T17:13:15.156Z,42.30
2019-04-27T17:15:54.061Z,42.70
2019-04-27T17:18:31.867Z,42.10
2019-04-27T17:21:15.838Z,42.60
2019-04-27T17:23:36.636Z,43.00
2019-04-27T17:26:20.642Z,43.50
2019-04-27T17:28:51.135Z,43.50
2019-04-27T17:31:30.438Z,43.60
2019-04-27T17:34:04.847Z,44.60
2019-04-27T17:36:35.086Z,44.50
2019-04-27T17:39:08.585Z,45.50
2019-04-27T17:41:42.074Z,43.80
2019-04-27T17:44:12.670Z,44.00
2019-04-27T17:46:46.853Z,44.90
2019-04-27T17:49:14.808Z,44.90
2019-04-27T17:51:48.307Z,45.00
2019-04-27T17:54:22.668Z,44.70
2019-04-27T17:56:52.794Z,44.70
2019-04-27T17:59:24.571Z,44.60
2019-04-27T18:02:00.845Z,45.20
2019-04-27T18:04:26.572Z,44.90
2019-04-27T18:07:02.099Z,44.90
2019-04-27T18:09:33.595Z,44.90
2019-04-27T18:12:09.737Z,45.00
2019-04-27T18:17:29.630Z,45.30
2019-04-27T18:20:01.399Z,45.50
2019-04-27T18:22:36.642Z,45.00
2019-04-27T18:25:09.662Z,46.60
2019-04-27T18:27:41.138Z,46.60
2019-04-27T18:30:16.539Z,46.40
2019-04-27T18:32:48.617Z,47.20
2019-04-27T18:35:29.686Z,47.30
2019-04-27T18:38:02.668Z,47.60
2019-04-27T18:40:38.202Z,47.20
2019-04-27T18:43:12.270Z,48.60
2019-04-27T18:45:46.278Z,48.40
2019-04-27T18:48:18.738Z,48.80
2019-04-27T18:50:52.163Z,49.20
2019-04-27T18:53:24.555Z,50.00
2019-04-27T18:55:59.379Z,50.40
2019-04-27T18:58:26.746Z,50.40
2019-04-27T19:00:59.846Z,50.60
2019-04-27T19:03:31.748Z,51.30
2019-04-27T19:06:05.000Z,51.10
2019-04-27T19:08:41.007Z,49.60
2019-04-27T19:11:14.775Z,49.80
2019-04-27T19:13:46.471Z,49.30
2019-04-27T19:16:18.714Z,48.90
2019-04-27T19:18:49.767Z,49.10
2019-04-27T19:21:25.803Z,50.10
2019-04-27T19:23:56.102Z,50.00
2019-04-27T19:26:42.970Z,49.60
2019-04-27T19:29:19.016Z,50.10
2019-04-27T19:31:58.513Z,50.90
2019-04-27T19:37:30.905Z,52.20
2019-04-27T19:40:01.540Z,53.80
2019-04-27T19:42:35.579Z,54.20
2019-04-27T19:45:10.002Z,54.00
2019-04-27T19:47:51.691Z,53.80
2019-04-27T19:50:23.653Z,53.10
2019-04-27T19:52:59.740Z,54.20
2019-04-27T19:58:32.308Z,52.90
2019-04-27T20:01:11.878Z,53.30
2019-04-27T20:03:51.078Z,53.20
2019-04-27T20:06:21.516Z,53.20
2019-04-27T20:08:59.085Z,54.20
2019-04-27T20:11:34.019Z,54.40
2019-04-27T20:14:05.472Z,54.60
2019-04-27T20:16:35.800Z,54.70
2019-04-27T20:19:08.788Z,53.70
2019-04-27T20:21:40.893Z,54.20
2019-04-27T20:24:33.587Z,53.60
2019-04-27T20:27:03.893Z,53.00
2019-04-27T20:29:34.219Z,52.60
2019-04-27T20:32:05.467Z,52.00
2019-04-27T20:34:37.157Z,54.00
2019-04-27T20:37:07.362Z,51.90
2019-04-27T20:39:37.565Z,52.80
2019-04-27T20:42:08.627Z,52.70
2019-04-27T20:44:38.835Z,52.30
2019-04-27T20:47:09.102Z,52.10
2019-04-27T20:49:39.398Z,52.90
2019-04-27T20:52:11.158Z,52.90
2019-04-27T20:54:41.673Z,53.10
2019-04-27T20:57:11.900Z,52.80
2019-04-27T20:59:42.206Z,52.40
2019-04-27T21:02:32.650Z,52.00
2019-04-27T21:05:14.323Z,52.20
2019-04-27T21:07:48.740Z,52.80
2019-04-27T21:10:18.859Z,53.70
2019-04-27T21:12:48.992Z,54.40
2019-04-27T21:15:21.260Z,55.60
2019-04-27T21:17:51.305Z,55.30
2019-04-27T21:20:21.958Z,55.60
2019-04-27T21:22:53.448Z,55.40
2019-04-27T21:25:23.683Z,55.30
2019-04-27T21:27:54.050Z,55.90
2019-04-27T21:30:24.151Z,56.10
2019-04-27T21:32:54.503Z,55.40
2019-04-27T21:35:24.694Z,54.80
2019-04-27T21:37:55.055Z,54.50
2019-04-27T21:40:25.231Z,54.30
2019-04-27T21:42:55.434Z,53.90
2019-04-27T21:45:27.981Z,54.10
2019-04-27T21:47:58.018Z,54.90
2019-04-27T21:50:28.141Z,54.80
2019-04-27T21:53:11.014Z,55.10
2019-04-27T21:55:42.195Z,54.50
2019-04-27T21:58:13.882Z,53.40
2019-04-27T22:00:45.674Z,53.30
2019-04-27T22:03:18.388Z,54.10
2019-04-27T22:05:52.196Z,54.30
2019-04-27T22:08:22.525Z,54.70
2019-04-27T22:10:52.754Z,54.50
2019-04-27T22:13:22.949Z,54.40
2019-04-27T22:15:53.167Z,54.50
2019-04-27T22:18:23.455Z,56.20
2019-04-27T22:20:54.019Z,56.60
2019-04-27T22:23:34.730Z,56.10
2019-04-27T22:26:05.054Z,56.20
2019-04-27T22:28:46.366Z,55.60
2019-04-27T22:31:08.255Z,55.10
2019-04-27T22:33:38.387Z,55.90
2019-04-27T22:36:08.614Z,55.80
2019-04-27T22:38:38.779Z,55.70
2019-04-27T22:41:21.224Z,55.80
2019-04-27T22:43:55.539Z,54.90
2019-04-27T22:46:27.491Z,54.80
2019-04-27T22:48:57.719Z,54.90
2019-04-27T22:51:27.843Z,56.30
2019-04-27T22:53:57.997Z,56.30
2019-04-27T22:56:28.339Z,55.90
2019-04-27T22:59:01.630Z,56.50
2019-04-27T23:01:34.250Z,57.20
2019-04-27T23:04:16.103Z,56.80
2019-04-27T23:06:47.850Z,57.30
2019-04-27T23:09:18.146Z,58.00
2019-04-27T23:11:51.533Z,57.70
2019-04-27T23:14:21.595Z,58.20
2019-04-27T23:17:08.079Z,58.40
2019-04-27T23:19:38.209Z,58.40
2019-04-27T23:22:08.233Z,59.60
2019-04-27T23:24:38.182Z,60.20
2019-04-27T23:27:08.458Z,61.60
2019-04-27T23:29:38.503Z,63.00
2019-04-27T23:32:11.703Z,62.40
2019-04-27T23:34:41.628Z,63.30
2019-04-27T23:37:13.211Z,64.10
2019-04-27T23:39:43.597Z,63.90
2019-04-27T23:42:13.593Z,65.00
2019-04-27T23:44:43.657Z,65.80
2019-04-27T23:47:15.267Z,66.10
2019-04-27T23:49:46.304Z,66.30
2019-04-27T23:52:30.790Z,67.20
2019-04-27T23:55:02.329Z,68.30
2019-04-27T23:57:34.284Z,66.90
